sensor_id;sensor_type;location;lat;lon;timestamp;pressure;altitude;pressure_sealevel;temperature;humidity
22930;BME280;11630;42.660;23.292;2023-02-28T00:00:45;68498.88;;;8.72;100.00
22930;BME280;11630;42.660;23.292;2023-02-28T00:03:16;68504.29;;;8.72;100.00
22930;BME280;11630;42.660;23.292;2023-02-28T00:05:46;68490.72;;;8.67;100.00
22930;BME280;11630;42.660;23.292;2023-02-28T00:08:18;68487.74;;;8.63;100.00
22930;BME280;11630;42.660;23.292;2023-02-28T00:10:49;68491.81;;;8.68;100.00
22930;BME280;11630;42.660;23.292;2023-02-28T00:13:20;68512.99;;;8.85;100.00
22930;BME280;11630;42.660;23.292;2023-02-28T00:15:58;68486.91;;;8.58;100.00
22930;BME280;11630;42.660;23.292;2023-02-28T00:18:29;68478.78;;;8.51;100.00
22930;BME280;11630;42.660;23.292;2023-02-28T00:21:00;68491.54;;;8.64;100.00
22930;BME280;11630;42.660;23.292;2023-02-28T00:23:31;68493.72;;;8.66;100.00
22930;BME280;11630;42.660;23.292;2023-02-28T00:26:06;68476.88;;;8.53;100.00
22930;BME280;11630;42.660;23.292;2023-02-28T00:28:36;68482.30;;;8.55;100.00
22930;BME280;11630;42.660;23.292;2023-02-28T00:31:06;68507.56;;;8.80;100.00
22930;BME280;11630;42.660;23.292;2023-02-28T00:33:37;68514.09;;;8.91;100.00
22930;BME280;11630;42.660;23.292;2023-02-28T00:36:09;68525.48;;;8.96;100.00
22930;BME280;11630;42.660;23.292;2023-02-28T00:38:41;68529.81;;;8.98;100.00
22930;BME280;11630;42.660;23.292;2023-02-28T00:41:11;68508.38;;;8.82;100.00
22930;BME280;11630;42.660;23.292;2023-02-28T00:43:42;68508.66;;;8.81;100.00
22930;BME280;11630;42.660;23.292;2023-02-28T00:46:13;68473.63;;;8.50;100.00
22930;BME280;11630;42.660;23.292;2023-02-28T00:48:44;68450.02;;;8.30;100.00
22930;BME280;11630;42.660;23.292;2023-02-28T00:51:15;68416.86;;;7.97;100.00
22930;BME280;11630;42.660;23.292;2023-02-28T00:53:46;68464.68;;;8.43;100.00
22930;BME280;11630;42.660;23.292;2023-02-28T00:56:17;68432.94;;;8.18;100.00
22930;BME280;11630;42.660;23.292;2023-02-28T00:58:47;68438.84;;;8.13;100.00
22930;BME280;11630;42.660;23.292;2023-02-28T01:01:18;68443.50;;;8.21;100.00
22930;BME280;11630;42.660;23.292;2023-02-28T01:03:49;68440.50;;;8.20;100.00
22930;BME280;11630;42.660;23.292;2023-02-28T01:06:20;68473.07;;;8.47;100.00
22930;BME280;11630;42.660;23.292;2023-02-28T01:08:51;68484.20;;;8.56;100.00
22930;BME280;11630;42.660;23.292;2023-02-28T01:11:22;68417.16;;;7.98;100.00
22930;BME280;11630;42.660;23.292;2023-02-28T01:13:53;68422.58;;;8.03;100.00
22930;BME280;11630;42.660;23.292;2023-02-28T01:16:27;68447.00;;;8.23;100.00
22930;BME280;11630;42.660;23.292;2023-02-28T01:18:57;68470.62;;;8.41;100.00
22930;BME280;11630;42.660;23.292;2023-02-28T01:21:30;68482.84;;;8.51;100.00
22930;BME280;11630;42.660;23.292;2023-02-28T01:24:04;68470.63;;;8.46;100.00
22930;BME280;11630;42.660;23.292;2023-02-28T01:26:34;68455.43;;;8.32;100.00
22930;BME280;11630;42.660;23.292;2023-02-28T01:29:05;68457.34;;;8.35;100.00
22930;BME280;11630;42.660;23.292;2023-02-28T01:31:35;68404.67;;;7.87;100.00
22930;BME280;11630;42.660;23.292;2023-02-28T01:34:06;68443.50;;;8.21;100.00
22930;BME280;11630;42.660;23.292;2023-02-28T01:36:37;68417.16;;;7.98;100.00
22930;BME280;11630;42.660;23.292;2023-02-28T01:39:07;68402.49;;;7.82;100.00
22930;BME280;11630;42.660;23.292;2023-02-28T01:41:38;68392.47;;;7.79;100.00
22930;BME280;11630;42.660;23.292;2023-02-28T01:46:58;68416.59;;;7.95;100.00
22930;BME280;11630;42.660;23.292;2023-02-28T01:49:29;68400.88;;;7.81;100.00
22930;BME280;11630;42.660;23.292;2023-02-28T01:52:00;68358.02;;;7.44;100.00
22930;BME280;11630;42.660;23.292;2023-02-28T01:54:33;68357.47;;;7.44;100.00
22930;BME280;11630;42.660;23.292;2023-02-28T01:57:05;68374.58;;;7.65;100.00
22930;BME280;11630;42.660;23.292;2023-02-28T01:59:40;68350.97;;;7.38;100.00
22930;BME280;11630;42.660;23.292;2023-02-28T02:02:10;68356.64;;;7.42;100.00
22930;BME280;11630;42.660;23.292;2023-02-28T02:04:45;68339.84;;;7.29;100.00
22930;BME280;11630;42.660;23.292;2023-02-28T02:07:14;68313.84;;;7.07;100.00
22930;BME280;11630;42.660;23.292;2023-02-28T02:09:45;68316.81;;;7.09;100.00
22930;BME280;11630;42.660;23.292;2023-02-28T02:12:30;68329.50;;;7.12;100.00
22930;BME280;11630;42.660;23.292;2023-02-28T02:15:16;68323.58;;;7.14;100.00
22930;BME280;11630;42.660;23.292;2023-02-28T02:17:45;68341.75;;;7.29;100.00
22930;BME280;11630;42.660;23.292;2023-02-28T02:26:16;68318.44;;;7.13;100.00
22930;BME280;11630;42.660;23.292;2023-02-28T02:31:43;68330.06;;;7.15;100.00
22930;BME280;11630;42.660;23.292;2023-02-28T02:43:10;68379.98;;;7.63;100.00
22930;BME280;11630;42.660;23.292;2023-02-28T02:45:50;68381.61;;;7.67;100.00
22930;BME280;11630;42.660;23.292;2023-02-28T02:48:21;68359.38;;;7.47;100.00
22930;BME280;11630;42.660;23.292;2023-02-28T02:50:55;68374.27;;;7.57;100.00
22930;BME280;11630;42.660;23.292;2023-02-28T02:53:34;68357.73;;;7.43;100.00
22930;BME280;11630;42.660;23.292;2023-02-28T02:56:04;68330.90;;;7.19;100.00
22930;BME280;11630;42.660;23.292;2023-02-28T02:58:38;68361.52;;;7.44;100.00
22930;BME280;11630;42.660;23.292;2023-02-28T03:01:13;68359.63;;;7.41;100.00
22930;BME280;11630;42.660;23.292;2023-02-28T03:03:44;68352.89;;;7.46;100.00
22930;BME280;11630;42.660;23.292;2023-02-28T03:06:16;68355.03;;;7.43;100.00
22930;BME280;11630;42.660;23.292;2023-02-28T03:08:47;68362.61;;;7.45;100.00
22930;BME280;11630;42.660;23.292;2023-02-28T03:11:18;68349.59;;;7.33;100.00
22930;BME280;11630;42.660;23.292;2023-02-28T03:14:12;68376.70;;;7.55;100.00
22930;BME280;11630;42.660;23.292;2023-02-28T03:16:45;68364.23;;;7.49;100.00
22930;BME280;11630;42.660;23.292;2023-02-28T03:19:32;68376.45;;;7.61;100.00
22930;BME280;11630;42.660;23.292;2023-02-28T03:27:36;68362.61;;;7.47;100.00
22930;BME280;11630;42.660;23.292;2023-02-28T03:30:23;68346.09;;;7.36;100.00
22930;BME280;11630;42.660;23.292;2023-02-28T03:32:54;68379.98;;;7.65;100.00
22930;BME280;11630;42.660;23.292;2023-02-28T03:35:38;68403.84;;;7.82;100.00
22930;BME280;11630;42.660;23.292;2023-02-28T03:38:16;68385.95;;;7.71;100.00
22930;BME280;11630;42.660;23.292;2023-02-28T03:40:48;68393.81;;;7.74;100.00
22930;BME280;11630;42.660;23.292;2023-02-28T03:43:21;68378.89;;;7.62;100.00
22930;BME280;11630;42.660;23.292;2023-02-28T03:45:51;68372.65;;;7.55;100.00
22930;BME280;11630;42.660;23.292;2023-02-28T03:48:29;68407.91;;;7.87;100.00
22930;BME280;11630;42.660;23.292;2023-02-28T03:50:58;68425.28;;;8.03;100.00
22930;BME280;11630;42.660;23.292;2023-02-28T03:53:36;68454.59;;;8.25;100.00
22930;BME280;11630;42.660;23.292;2023-02-28T03:58:57;68463.85;;;8.41;100.00
22930;BME280;11630;42.660;23.292;2023-02-28T04:01:39;68424.75;;;8.03;100.00
22930;BME280;11630;42.660;23.292;2023-02-28T04:04:10;68446.74;;;8.24;100.00
22930;BME280;11630;42.660;23.292;2023-02-28T04:06:42;68456.79;;;8.35;100.00
22930;BME280;11630;42.660;23.292;2023-02-28T04:09:13;68454.61;;;8.30;100.00
22930;BME280;11630;42.660;23.292;2023-02-28T04:11:46;68431.79;;;8.09;100.00
22930;BME280;11630;42.660;23.292;2023-02-28T04:14:16;68382.16;;;7.67;100.00
22930;BME280;11630;42.660;23.292;2023-02-28T04:16:47;68415.77;;;7.91;100.00
22930;BME280;11630;42.660;23.292;2023-02-28T04:19:18;68417.42;;;7.97;100.00
22930;BME280;11630;42.660;23.292;2023-02-28T04:21:51;68430.70;;;8.08;100.00
22930;BME280;11630;42.660;23.292;2023-02-28T04:24:25;68419.86;;;7.98;100.00
22930;BME280;11630;42.660;23.292;2023-02-28T04:26:58;68411.44;;;7.89;100.00
22930;BME280;11630;42.660;23.292;2023-02-28T04:29:31;68405.20;;;7.87;100.00
22930;BME280;11630;42.660;23.292;2023-02-28T04:32:03;68425.55;;;8.02;100.00
22930;BME280;11630;42.660;23.292;2023-02-28T04:34:34;68445.66;;;8.23;100.00
22930;BME280;11630;42.660;23.292;2023-02-28T04:37:04;68408.47;;;7.88;100.00
22930;BME280;11630;42.660;23.292;2023-02-28T04:39:36;68381.08;;;7.66;100.00
22930;BME280;11630;42.660;23.292;2023-02-28T04:42:07;68412.23;;;7.89;100.00
22930;BME280;11630;42.660;23.292;2023-02-28T04:44:38;68392.73;;;7.76;100.00
22930;BME280;11630;42.660;23.292;2023-02-28T04:47:09;68422.88;;;8.07;100.00
22930;BME280;11630;42.660;23.292;2023-02-28T04:49:39;68417.69;;;7.99;100.00
22930;BME280;11630;42.660;23.292;2023-02-28T04:52:10;68435.32;;;8.11;100.00
22930;BME280;11630;42.660;23.292;2023-02-28T04:54:41;68421.48;;;8.02;100.00
22930;BME280;11630;42.660;23.292;2023-02-28T04:57:12;68331.72;;;7.21;100.00
22930;BME280;11630;42.660;23.292;2023-02-28T04:59:43;68311.92;;;7.02;100.00
22930;BME280;11630;42.660;23.292;2023-02-28T05:02:14;68327.09;;;7.13;100.00
22930;BME280;11630;42.660;23.292;2023-02-28T05:04:45;68317.06;;;7.05;100.00
22930;BME280;11630;42.660;23.292;2023-02-28T05:07:16;68320.31;;;7.08;100.00
22930;BME280;11630;42.660;23.292;2023-02-28T05:09:47;68304.33;;;6.95;100.00
22930;BME280;11630;42.660;23.292;2023-02-28T05:12:18;68353.14;;;7.40;100.00
22930;BME280;11630;42.660;23.292;2023-02-28T05:14:49;68376.16;;;7.55;100.00
22930;BME280;11630;42.660;23.292;2023-02-28T05:17:19;68401.67;;;7.83;100.00
22930;BME280;11630;42.660;23.292;2023-02-28T05:19:50;68374.02;;;7.60;100.00
22930;BME280;11630;42.660;23.292;2023-02-28T05:22:21;68400.33;;;7.83;100.00
22930;BME280;11630;42.660;23.292;2023-02-28T05:24:52;68370.20;;;7.54;100.00
22930;BME280;11630;42.660;23.292;2023-02-28T05:27:23;68377.27;;;7.61;100.00
22930;BME280;11630;42.660;23.292;2023-02-28T05:29:54;68375.91;;;7.56;100.00
22930;BME280;11630;42.660;23.292;2023-02-28T05:32:25;68373.73;;;7.56;100.00
22930;BME280;11630;42.660;23.292;2023-02-28T05:34:55;68382.95;;;7.67;100.00
22930;BME280;11630;42.660;23.292;2023-02-28T05:37:26;68381.59;;;7.64;100.00
22930;BME280;11630;42.660;23.292;2023-02-28T05:39:57;68380.77;;;7.60;100.00
22930;BME280;11630;42.660;23.292;2023-02-28T05:42:28;68351.53;;;7.41;100.00
22930;BME280;11630;42.660;23.292;2023-02-28T05:44:58;68358.28;;;7.43;100.00
22930;BME280;11630;42.660;23.292;2023-02-28T05:47:28;68371.30;;;7.58;100.00
22930;BME280;11630;42.660;23.292;2023-02-28T05:49:59;68375.92;;;7.61;100.00
22930;BME280;11630;42.660;23.292;2023-02-28T05:52:30;68398.44;;;7.80;100.00
22930;BME280;11630;42.660;23.292;2023-02-28T05:55:02;68410.10;;;7.94;100.00
22930;BME280;11630;42.660;23.292;2023-02-28T05:57:32;68409.02;;;7.93;100.00
22930;BME280;11630;42.660;23.292;2023-02-28T06:00:03;68417.96;;;8.00;100.00
22930;BME280;11630;42.660;23.292;2023-02-28T06:02:34;68409.30;;;7.92;100.00
22930;BME280;11630;42.660;23.292;2023-02-28T06:05:04;68423.66;;;8.02;100.00
22930;BME280;11630;42.660;23.292;2023-02-28T06:07:35;68393.28;;;7.76;100.00
22930;BME280;11630;42.660;23.292;2023-02-28T06:10:07;68370.78;;;7.60;100.00
22930;BME280;11630;42.660;23.292;2023-02-28T06:12:39;68432.88;;;8.10;100.00
22930;BME280;11630;42.660;23.292;2023-02-28T06:15:14;68441.33;;;8.19;100.00
22930;BME280;11630;42.660;23.292;2023-02-28T06:17:45;68420.13;;;7.97;100.00
22930;BME280;11630;42.660;23.292;2023-02-28T06:20:17;68433.97;;;8.11;100.00
22930;BME280;11630;42.660;23.292;2023-02-28T06:22:48;68442.98;;;8.28;100.00
22930;BME280;11630;42.660;23.292;2023-02-28T06:25:22;68445.13;;;8.25;100.00
22930;BME280;11630;42.660;23.292;2023-02-28T06:27:54;68456.25;;;8.32;100.00
22930;BME280;11630;42.660;23.292;2023-02-28T06:30:27;68453.25;;;8.30;100.00
22930;BME280;11630;42.660;23.292;2023-02-28T06:33:00;68431.00;;;8.12;100.00
22930;BME280;11630;42.660;23.292;2023-02-28T06:35:33;68422.31;;;8.04;100.00
22930;BME280;11630;42.660;23.292;2023-02-28T06:38:03;68416.89;;;7.99;100.00
22930;BME280;11630;42.660;23.292;2023-02-28T06:40:34;68416.59;;;7.93;100.00
22930;BME280;11630;42.660;23.292;2023-02-28T06:43:05;68419.59;;;7.99;100.00
22930;BME280;11630;42.660;23.292;2023-02-28T06:45:36;68429.08;;;8.07;100.00
22930;BME280;11630;42.660;23.292;2023-02-28T06:48:07;68451.91;;;8.30;100.00
22930;BME280;11630;42.660;23.292;2023-02-28T06:50:38;68458.15;;;8.37;100.00
22930;BME280;11630;42.660;23.292;2023-02-28T06:53:09;68486.09;;;8.59;100.00
22930;BME280;11630;42.660;23.292;2023-02-28T06:55:41;68474.44;;;8.52;100.00
22930;BME280;11630;42.660;23.292;2023-02-28T06:58:10;68452.45;;;8.28;100.00
22930;BME280;11630;42.660;23.292;2023-02-28T07:00:49;68419.31;;;8.00;100.00
22930;BME280;11630;42.660;23.292;2023-02-28T07:03:17;68441.59;;;8.18;100.00
22930;BME280;11630;42.660;23.292;2023-02-28T07:05:48;68463.30;;;8.40;100.00
22930;BME280;11630;42.660;23.292;2023-02-28T07:08:19;68479.04;;;8.50;100.00
22930;BME280;11630;42.660;23.292;2023-02-28T07:10:54;68489.92;;;8.62;100.00
22930;BME280;11630;42.660;23.292;2023-02-28T07:13:25;68490.19;;;8.64;100.00
22930;BME280;11630;42.660;23.292;2023-02-28T07:16:04;68508.92;;;8.82;100.00
22930;BME280;11630;42.660;23.292;2023-02-28T07:18:35;68477.97;;;8.54;100.00
22930;BME280;11630;42.660;23.292;2023-02-28T07:21:08;68488.83;;;8.64;100.00
22930;BME280;11630;42.660;23.292;2023-02-28T07:23:40;68484.50;;;8.62;100.00
22930;BME280;11630;42.660;23.292;2023-02-28T07:26:13;68508.63;;;8.76;100.00
22930;BME280;11630;42.660;23.292;2023-02-28T07:28:44;68501.86;;;8.76;100.00
22930;BME280;11630;42.660;23.292;2023-02-28T07:31:15;68508.92;;;8.80;100.00
22930;BME280;11630;42.660;23.292;2023-02-28T07:33:46;68500.77;;;8.75;100.00
22930;BME280;11630;42.660;23.292;2023-02-28T07:36:17;68470.37;;;8.47;100.00
22930;BME280;11630;42.660;23.292;2023-02-28T07:38:48;68454.91;;;8.34;100.00
22930;BME280;11630;42.660;23.292;2023-02-28T07:41:19;68459.78;;;8.36;100.00
22930;BME280;11630;42.660;23.292;2023-02-28T07:43:52;68463.03;;;8.39;100.00
22930;BME280;11630;42.660;23.292;2023-02-28T07:46:21;68463.03;;;8.41;100.00
22930;BME280;11630;42.660;23.292;2023-02-28T07:48:59;68466.83;;;8.45;100.00
22930;BME280;11630;42.660;23.292;2023-02-28T07:51:31;68454.91;;;8.34;100.00
22930;BME280;11630;42.660;23.292;2023-02-28T07:54:00;68460.88;;;8.40;100.00
22930;BME280;11630;42.660;23.292;2023-02-28T07:56:31;68483.94;;;8.57;100.00
22930;BME280;11630;42.660;23.292;2023-02-28T07:59:02;68507.56;;;8.80;100.00
22930;BME280;11630;42.660;23.292;2023-02-28T08:01:33;68501.85;;;8.73;100.00
22930;BME280;11630;42.660;23.292;2023-02-28T08:04:04;68462.23;;;8.40;100.00
22930;BME280;11630;42.660;23.292;2023-02-28T08:06:34;68442.41;;;8.20;100.00
22930;BME280;11630;42.660;23.292;2023-02-28T08:09:05;68455.69;;;8.29;100.00
22930;BME280;11630;42.660;23.292;2023-02-28T08:11:36;68517.59;;;8.85;100.00
22930;BME280;11630;42.660;23.292;2023-02-28T08:14:07;68507.84;;;8.84;100.00
22930;BME280;11630;42.660;23.292;2023-02-28T08:16:37;68459.24;;;8.40;100.00
22930;BME280;11630;42.660;23.292;2023-02-28T08:19:07;68500.23;;;8.77;100.00
22930;BME280;11630;42.660;23.292;2023-02-28T08:21:38;68491.80;;;8.63;100.00
22930;BME280;11630;42.660;23.292;2023-02-28T08:24:09;68496.70;;;8.72;100.00
22930;BME280;11630;42.660;23.292;2023-02-28T08:26:40;68520.06;;;8.94;100.00
22930;BME280;11630;42.660;23.292;2023-02-28T08:29:10;68505.95;;;8.81;100.00
22930;BME280;11630;42.660;23.292;2023-02-28T08:31:41;68517.32;;;8.86;100.00
22930;BME280;11630;42.660;23.292;2023-02-28T08:34:13;68506.48;;;8.79;100.00
22930;BME280;11630;42.660;23.292;2023-02-28T08:36:43;68493.46;;;8.72;100.00
22930;BME280;11630;42.660;23.292;2023-02-28T08:39:14;68496.69;;;8.65;100.00
22930;BME280;11630;42.660;23.292;2023-02-28T08:41:44;68481.20;;;8.52;100.00
22930;BME280;11630;42.660;23.292;2023-02-28T08:44:15;68477.97;;;8.54;100.00
22930;BME280;11630;42.660;23.292;2023-02-28T08:46:46;68488.02;;;8.64;100.00
22930;BME280;11630;42.660;23.292;2023-02-28T08:49:16;68464.94;;;8.42;100.00
22930;BME280;11630;42.660;23.292;2023-02-28T08:51:47;68480.14;;;8.56;100.00
22930;BME280;11630;42.660;23.292;2023-02-28T08:54:17;68473.89;;;8.49;100.00
22930;BME280;11630;42.660;23.292;2023-02-28T08:56:49;68461.41;;;8.40;100.00
22930;BME280;11630;42.660;23.292;2023-02-28T08:59:19;68459.76;;;8.34;100.00
22930;BME280;11630;42.660;23.292;2023-02-28T09:01:50;68474.16;;;8.50;100.00
22930;BME280;11630;42.660;23.292;2023-02-28T09:04:20;68477.44;;;8.56;100.00
22930;BME280;11630;42.660;23.292;2023-02-28T09:06:51;68477.97;;;8.54;100.00
22930;BME280;11630;42.660;23.292;2023-02-28T09:09:22;68492.63;;;8.65;100.00
22930;BME280;11630;42.660;23.292;2023-02-28T09:11:51;68485.29;;;8.57;100.00
22930;BME280;11630;42.660;23.292;2023-02-28T09:14:23;68483.68;;;8.60;100.00
22930;BME280;11630;42.660;23.292;2023-02-28T09:16:54;68473.91;;;8.51;100.00
22930;BME280;11630;42.660;23.292;2023-02-28T09:19:25;68476.08;;;8.53;100.00
22930;BME280;11630;42.660;23.292;2023-02-28T09:21:55;68497.23;;;8.68;100.00
22930;BME280;11630;42.660;23.292;2023-02-28T09:24:26;68512.43;;;8.82;100.00
22930;BME280;11630;42.660;23.292;2023-02-28T09:26:56;68495.34;;;8.72;100.00
22930;BME280;11630;42.660;23.292;2023-02-28T09:29:27;68518.41;;;8.90;100.00
22930;BME280;11630;42.660;23.292;2023-02-28T09:31:58;68542.30;;;9.07;100.00
22930;BME280;11630;42.660;23.292;2023-02-28T09:34:29;68549.12;;;9.17;100.00
22930;BME280;11630;42.660;23.292;2023-02-28T09:37:00;68571.41;;;9.39;100.00
22930;BME280;11630;42.660;23.292;2023-02-28T09:39:30;68607.53;;;9.74;100.00
22930;BME280;11630;42.660;23.292;2023-02-28T09:42:01;68593.40;;;9.58;100.00
22930;BME280;11630;42.660;23.292;2023-02-28T09:44:42;68595.58;;;9.60;100.00
22930;BME280;11630;42.660;23.292;2023-02-28T09:50:43;68606.72;;;9.69;100.00
22930;BME280;11630;42.660;23.292;2023-02-28T09:52:33;68619.23;;;9.83;100.00
22930;BME280;11630;42.660;23.292;2023-02-28T09:58:02;68634.16;;;9.93;100.00
22930;BME280;11630;42.660;23.292;2023-02-28T10:00:40;68680.95;;;10.36;100.00
22930;BME280;11630;42.660;23.292;2023-02-28T10:06:14;68706.52;;;10.62;100.00
22930;BME280;11630;42.660;23.292;2023-02-28T10:08:51;68682.85;;;10.39;100.00
22930;BME280;11630;42.660;23.292;2023-02-28T10:11:17;68705.70;;;10.62;100.00
22930;BME280;11630;42.660;23.292;2023-02-28T10:14:02;68727.47;;;10.84;100.00
22930;BME280;11630;42.660;23.292;2023-02-28T10:16:40;68696.45;;;10.54;100.00
22930;BME280;11630;42.660;23.292;2023-02-28T10:22:18;68701.62;;;10.57;100.00
22930;BME280;11630;42.660;23.292;2023-02-28T10:24:54;68663.00;;;10.22;100.00
22930;BME280;11630;42.660;23.292;2023-02-28T10:27:34;68637.19;;;9.99;100.00
22930;BME280;11630;42.660;23.292;2023-02-28T10:30:01;68657.01;;;10.14;100.00
22930;BME280;11630;42.660;23.292;2023-02-28T10:32:33;68656.20;;;10.14;100.00
22930;BME280;11630;42.660;23.292;2023-02-28T10:35:18;68666.53;;;10.24;100.00
22930;BME280;11630;42.660;23.292;2023-02-28T10:37:50;68680.41;;;10.38;100.00
22930;BME280;11630;42.660;23.292;2023-02-28T10:43:02;68752.22;;;11.03;100.00
22930;BME280;11630;42.660;23.292;2023-02-28T10:45:35;68748.70;;;11.04;100.00
22930;BME280;11630;42.660;23.292;2023-02-28T10:48:26;68803.39;;;11.50;100.00
22930;BME280;11630;42.660;23.292;2023-02-28T10:56:14;68845.88;;;11.89;100.00
22930;BME280;11630;42.660;23.292;2023-02-28T10:58:54;68847.78;;;11.92;100.00
22930;BME280;11630;42.660;23.292;2023-02-28T11:07:01;68921.59;;;12.48;100.00
22930;BME280;11630;42.660;23.292;2023-02-28T11:09:39;68929.50;;;12.61;100.00
22930;BME280;11630;42.660;23.292;2023-02-28T11:15:00;68937.95;;;12.73;100.00
22930;BME280;11630;42.660;23.292;2023-02-28T11:17:28;68951.58;;;12.85;100.00
22930;BME280;11630;42.660;23.292;2023-02-28T11:20:04;68901.44;;;12.39;100.00
22930;BME280;11630;42.660;23.292;2023-02-28T11:22:39;68926.51;;;12.62;100.00
22930;BME280;11630;42.660;23.292;2023-02-28T11:25:22;68916.16;;;12.60;100.00
22930;BME280;11630;42.660;23.292;2023-02-28T11:27:45;68941.50;;;12.75;100.00
22930;BME280;11630;42.660;23.292;2023-02-28T11:35:53;68945.31;;;12.78;100.00
22930;BME280;11630;42.660;23.292;2023-02-28T11:38:26;68958.41;;;12.95;100.00
22930;BME280;11630;42.660;23.292;2023-02-28T11:41:02;68943.95;;;12.83;100.00
22930;BME280;11630;42.660;23.292;2023-02-28T11:46:35;68881.28;;;12.24;100.00
22930;BME280;11630;42.660;23.292;2023-02-28T11:49:18;68883.45;;;12.21;100.00
22930;BME280;11630;42.660;23.292;2023-02-28T11:52:12;68929.23;;;12.62;100.00
22930;BME280;11630;42.660;23.292;2023-02-28T11:55:06;68963.59;;;12.94;100.00
22930;BME280;11630;42.660;23.292;2023-02-28T11:58:04;68978.31;;;13.07;100.00
22930;BME280;11630;42.660;23.292;2023-02-28T12:03:30;68963.31;;;12.95;100.00
22930;BME280;11630;42.660;23.292;2023-02-28T12:06:10;68980.22;;;13.15;100.00
22930;BME280;11630;42.660;23.292;2023-02-28T12:14:44;68959.50;;;12.91;100.00
22930;BME280;11630;42.660;23.292;2023-02-28T12:17:58;68984.58;;;13.14;100.00
22930;BME280;11630;42.660;23.292;2023-02-28T12:28:05;68952.69;;;12.91;100.00
22930;BME280;11630;42.660;23.292;2023-02-28T12:30:39;68963.87;;;13.00;100.00
22930;BME280;11630;42.660;23.292;2023-02-28T12:33:19;68991.39;;;13.16;100.00
22930;BME280;11630;42.660;23.292;2023-02-28T12:35:47;68969.86;;;12.98;100.00
22930;BME280;11630;42.660;23.292;2023-02-28T12:38:23;68951.02;;;12.87;100.00
22930;BME280;11630;42.660;23.292;2023-02-28T12:43:37;68933.59;;;12.74;100.00
22930;BME280;11630;42.660;23.292;2023-02-28T12:46:09;68898.45;;;12.40;100.00
22930;BME280;11630;42.660;23.292;2023-02-28T12:48:52;68912.05;;;12.50;100.00
22930;BME280;11630;42.660;23.292;2023-02-28T12:51:21;68896.00;;;12.37;100.00
22930;BME280;11630;42.660;23.292;2023-02-28T12:54:18;68914.24;;;12.50;100.00
22930;BME280;11630;42.660;23.292;2023-02-28T12:56:48;68921.06;;;12.60;100.00
22930;BME280;11630;42.660;23.292;2023-02-28T13:04:55;68888.91;;;12.30;100.00
22930;BME280;11630;42.660;23.292;2023-02-28T13:08:01;68876.38;;;12.19;100.00
22930;BME280;11630;42.660;23.292;2023-02-28T13:13:01;68885.36;;;12.28;100.00
22930;BME280;11630;42.660;23.292;2023-02-28T13:15:31;68922.97;;;12.58;100.00
22930;BME280;11630;42.660;23.292;2023-02-28T13:18:01;68947.48;;;12.80;100.00
22930;BME280;11630;42.660;23.292;2023-02-28T13:20:36;68914.80;;;12.53;100.00
22930;BME280;11630;42.660;23.292;2023-02-28T13:23:35;68932.78;;;12.69;100.00
22930;BME280;11630;42.660;23.292;2023-02-28T13:25:50;68925.42;;;12.61;100.00
22930;BME280;11630;42.660;23.292;2023-02-28T13:31:08;68856.22;;;12.01;100.00
22930;BME280;11630;42.660;23.292;2023-02-28T13:36:31;68889.73;;;12.30;100.00
22930;BME280;11630;42.660;23.292;2023-02-28T13:39:11;68885.36;;;12.24;100.00
22930;BME280;11630;42.660;23.292;2023-02-28T13:44:15;68898.16;;;12.36;100.00
22930;BME280;11630;42.660;23.292;2023-02-28T13:49:27;68907.16;;;12.43;100.00
22930;BME280;11630;42.660;23.292;2023-02-28T13:52:13;68887.28;;;12.27;100.00
22930;BME280;11630;42.660;23.292;2023-02-28T13:54:57;68903.34;;;12.42;100.00
22930;BME280;11630;42.660;23.292;2023-02-28T14:00:43;68908.52;;;12.43;100.00
22930;BME280;11630;42.660;23.292;2023-02-28T14:03:18;68896.80;;;12.39;100.00
22930;BME280;11630;42.660;23.292;2023-02-28T14:05:51;68875.02;;;12.12;100.00
22930;BME280;11630;42.660;23.292;2023-02-28T14:08:21;68868.75;;;12.15;100.00
22930;BME280;11630;42.660;23.292;2023-02-28T14:11:22;68864.12;;;12.04;100.00
22930;BME280;11630;42.660;23.292;2023-02-28T14:13:42;68855.41;;;11.99;100.00
22930;BME280;11630;42.660;23.292;2023-02-28T14:16:22;68851.61;;;11.98;100.00
22930;BME280;11630;42.660;23.292;2023-02-28T14:22:01;68848.33;;;11.95;100.00
22930;BME280;11630;42.660;23.292;2023-02-28T14:24:50;68855.69;;;11.98;100.00
22930;BME280;11630;42.660;23.292;2023-02-28T14:27:38;68873.93;;;12.11;100.00
22930;BME280;11630;42.660;23.292;2023-02-28T14:36:08;68866.30;;;12.04;100.00
22930;BME280;11630;42.660;23.292;2023-02-28T14:38:18;68849.14;;;11.92;100.00
22930;BME280;11630;42.660;23.292;2023-02-28T14:40:49;68842.61;;;11.86;100.00
22930;BME280;11630;42.660;23.292;2023-02-28T14:43:23;68830.08;;;11.77;100.00
22930;BME280;11630;42.660;23.292;2023-02-28T14:46:02;68820.01;;;11.69;100.00
22930;BME280;11630;42.660;23.292;2023-02-28T14:48:34;68846.69;;;11.91;100.00
22930;BME280;11630;42.660;23.292;2023-02-28T14:51:05;68818.38;;;11.65;100.00
22930;BME280;11630;42.660;23.292;2023-02-28T14:53:37;68846.16;;;11.88;100.00
22930;BME280;11630;42.660;23.292;2023-02-28T14:56:17;68847.24;;;11.89;100.00
22930;BME280;11630;42.660;23.292;2023-02-28T14:58:40;68820.01;;;11.59;100.00
22930;BME280;11630;42.660;23.292;2023-02-28T15:01:11;68835.81;;;11.76;100.00
22930;BME280;11630;42.660;23.292;2023-02-28T15:03:41;68836.34;;;11.76;100.00
22930;BME280;11630;42.660;23.292;2023-02-28T15:06:16;68808.31;;;11.57;100.00
22930;BME280;11630;42.660;23.292;2023-02-28T15:08:46;68775.63;;;11.22;100.00
22930;BME280;11630;42.660;23.292;2023-02-28T15:11:20;68766.38;;;11.19;100.00
22930;BME280;11630;42.660;23.292;2023-02-28T15:13:52;68776.45;;;11.27;100.00